| time (UTC) | temp C | wind direction | speed KPH | gust KPH | rain 1hr cm | rain 24hr cm | rain mn cm | humidity % | barometer mb |
| 20260509154554 | 15 | 102 | 8.0 | 14.5 | 0.00 | 0.00 | 0.00 | 44 | 1016.5 |
| 20260509153103 | 15 | 91 | 3.2 | 12.9 | 0.00 | 0.00 | 0.00 | 45 | 1016.3 |
| 20260509151550 | 15 | 100 | 4.8 | 16.1 | 0.00 | 0.00 | 0.00 | 45 | 1016.3 |
| 20260509150053 | 14 | 117 | 6.4 | 16.1 | 0.00 | 0.00 | 0.00 | 46 | 1016.0 |
| 20260509144554 | 14 | 79 | 6.4 | 9.7 | 0.00 | 0.00 | 0.00 | 45 | 1016.0 |
| 20260509143058 | 13 | 325 | 4.8 | 9.7 | 0.00 | 0.00 | 0.00 | 47 | 1015.9 |
| 20260509141552 | 13 | 23 | 3.2 | 8.0 | 0.00 | 0.00 | 0.00 | 49 | 1015.8 |
| 20260509140109 | 12 | 23 | 0.0 | 8.0 | 0.00 | 0.00 | 0.00 | 51 | 1015.8 |
| 20260509134555 | 12 | 23 | 0.0 | 4.8 | 0.00 | 0.00 | 0.00 | 55 | 1015.7 |
| 20260509133058 | 11 | 0 | 1.6 | 8.0 | 0.00 | 0.00 | 0.00 | 58 | 1015.6 |
| 20260509131556 | 11 | 0 | 0.0 | 9.7 | 0.00 | 0.00 | 0.00 | 57 | 1015.5 |
| 20260509130050 | 11 | 53 | 9.7 | 16.1 | 0.00 | 0.00 | 0.00 | 56 | 1015.3 |
| 20260509124554 | 11 | 0 | 0.0 | 12.9 | 0.00 | 0.00 | 0.00 | 59 | 1014.9 |
| 20260509123055 | 11 | 0 | 3.2 | 8.0 | 0.00 | 0.00 | 0.00 | 58 | 1014.7 |
| 20260509121555 | 10 | 0 | 0.0 | 0.0 | 0.00 | 0.00 | 0.00 | 59 | 1014.7 |
| 20260509120055 | 10 | 319 | 4.8 | 12.9 | 0.00 | 0.00 | 0.00 | 62 | 1014.5 |
| 20260509114555 | 10 | 0 | 0.0 | 4.8 | 0.00 | 0.00 | 0.00 | 62 | 1014.4 |
| 20260509113057 | 11 | 0 | 0.0 | 6.4 | 0.00 | 0.00 | 0.00 | 61 | 1014.2 |
| 20260509111558 | 11 | 0 | 4.8 | 11.3 | 0.00 | 0.00 | 0.00 | 60 | 1013.9 |
| 20260509110054 | 11 | 325 | 4.8 | 9.7 | 0.00 | 0.00 | 0.00 | 61 | 1013.8 |
| 20260509104606 | 11 | 329 | 4.8 | 8.0 | 0.00 | 0.00 | 0.00 | 62 | 1013.7 |
| 20260509103107 | 10 | 0 | 0.0 | 4.8 | 0.00 | 0.00 | 0.00 | 62 | 1013.5 |
| 20260509101622 | 11 | 0 | 0.0 | 1.6 | 0.00 | 0.00 | 0.00 | 59 | 1013.3 |
| 20260509100059 | 11 | 0 | 0.0 | 12.9 | 0.00 | 0.00 | 0.00 | 53 | 1013.2 |
| 20260509094601 | 11 | 328 | 4.8 | 8.0 | 0.00 | 0.00 | 0.00 | 52 | 1013.1 |
| 20260509093058 | 11 | 325 | 0.0 | 4.8 | 0.00 | 0.00 | 0.00 | 53 | 1012.9 |
| 20260509091556 | 11 | 0 | 3.2 | 6.4 | 0.00 | 0.00 | 0.00 | 54 | 1012.9 |
| 20260509090058 | 10 | 0 | 0.0 | 4.8 | 0.00 | 0.00 | 0.00 | 56 | 1012.8 |
| 20260509084600 | 11 | 0 | 0.0 | 3.2 | 0.00 | 0.00 | 0.00 | 56 | 1012.5 |
| 20260509083106 | 11 | 325 | 6.4 | 9.7 | 0.00 | 0.00 | 0.00 | 58 | 1012.7 |
| 20260509081552 | 11 | 325 | 1.6 | 6.4 | 0.00 | 0.00 | 0.00 | 53 | 1012.5 |
| 20260509080052 | 11 | 325 | 3.2 | 6.4 | 0.00 | 0.00 | 0.00 | 49 | 1012.5 |
| 20260509074608 | 12 | 325 | 3.2 | 8.0 | 0.00 | 0.00 | 0.00 | 48 | 1012.5 |
| 20260509073103 | 13 | 325 | 1.6 | 6.4 | 0.00 | 0.00 | 0.00 | 47 | 1012.4 |
| 20260509071556 | 13 | 0 | 0.0 | 1.6 | 0.00 | 0.00 | 0.00 | 45 | 1012.3 |
| 20260509070056 | 13 | 0 | 1.6 | 16.1 | 0.00 | 0.00 | 0.00 | 51 | 1012.2 |
| 20260509064550 | 13 | 330 | 3.2 | 16.1 | 0.00 | 0.00 | 0.00 | 50 | 1012.2 |
| 20260509063059 | 13 | 344 | 6.4 | 16.1 | 0.00 | 0.00 | 0.00 | 43 | 1012.2 |
| 20260509061549 | 13 | 345 | 8.0 | 16.1 | 0.00 | 0.00 | 0.00 | 42 | 1012.1 |
| 20260509060108 | 15 | 352 | 17.7 | 30.6 | 0.00 | 0.00 | 0.00 | 49 | 1011.9 |
| 20260509054552 | 15 | 316 | 19.3 | 35.4 | 0.00 | 0.00 | 0.00 | 47 | 1011.6 |
| 20260509053102 | 15 | 306 | 16.1 | 27.4 | 0.00 | 0.00 | 0.00 | 49 | 1011.5 |
| 20260509051558 | 15 | 285 | 30.6 | 48.3 | 0.00 | 0.00 | 0.00 | 48 | 1011.0 |
| 20260509050050 | 16 | 288 | 20.9 | 38.6 | 0.00 | 0.00 | 0.00 | 44 | 1010.8 |
| 20260509044552 | 16 | 283 | 16.1 | 33.8 | 0.00 | 0.00 | 0.00 | 42 | 1010.4 |
| 20260509043053 | 16 | 287 | 12.9 | 24.1 | 0.00 | 0.00 | 0.00 | 40 | 1010.5 |
| 20260509041550 | 17 | 288 | 3.2 | 20.9 | 0.00 | 0.00 | 0.00 | 35 | 1010.7 |
| 20260509040106 | 17 | 330 | 6.4 | 19.3 | 0.00 | 0.00 | 0.00 | 28 | 1010.7 |
| 20260509034550 | 17 | 320 | 1.6 | 9.7 | 0.00 | 0.00 | 0.00 | 28 | 1010.3 |
| 20260509033109 | 16 | 5 | 0.0 | 6.4 | 0.00 | 0.00 | 0.00 | 28 | 1009.9 |
| 20260509031550 | 16 | 5 | 0.0 | 0.0 | 0.00 | 0.00 | 0.00 | 27 | 1009.6 |
| 20260509030053 | 17 | 0 | 0.0 | 0.0 | 0.00 | 0.00 | 0.00 | 26 | 1009.3 |
| 20260509024603 | 17 | 0 | 0.0 | 1.6 | 0.00 | 0.00 | 0.00 | 25 | 1009.0 |
| 20260509023056 | 18 | 5 | 3.2 | 9.7 | 0.00 | 0.00 | 0.00 | 25 | 1008.6 |
| 20260509021553 | 19 | 5 | 6.4 | 16.1 | 0.00 | 0.00 | 0.00 | 23 | 1008.4 |
| 20260509020105 | 20 | 360 | 17.7 | 25.7 | 0.00 | 0.00 | 0.00 | 22 | 1008.1 |
| 20260509014554 | 20 | 352 | 19.3 | 29.0 | 0.00 | 0.00 | 0.00 | 21 | 1008.0 |
| 20260509013052 | 21 | 344 | 17.7 | 29.0 | 0.00 | 0.00 | 0.00 | 20 | 1008.1 |
| 20260509011601 | 21 | 352 | 19.3 | 29.0 | 0.00 | 0.00 | 0.00 | 20 | 1008.1 |
| 20260509010059 | 21 | 333 | 24.1 | 30.6 | 0.00 | 0.00 | 0.00 | 20 | 1008.0 |
| 20260509004553 | 21 | 340 | 24.1 | 33.8 | 0.00 | 0.00 | 0.00 | 19 | 1008.1 |
| 20260509003056 | 21 | 340 | 22.5 | 37.0 | 0.00 | 0.00 | 0.00 | 20 | 1008.1 |
| 20260509001550 | 22 | 330 | 25.7 | 38.6 | 0.00 | 0.00 | 0.00 | 18 | 1008.0 |
| 20260509000052 | 22 | 342 | 29.0 | 41.8 | 0.00 | 0.00 | 0.00 | 18 | 1008.0 |
| 20260508234604 | 22 | 304 | 20.9 | 43.5 | 0.00 | 0.00 | 0.00 | 18 | 1008.0 |
| 20260508233105 | 22 | 319 | 32.2 | 49.9 | 0.00 | 0.00 | 0.00 | 17 | 1008.0 |
| 20260508231550 | 22 | 327 | 35.4 | 49.9 | 0.00 | 0.00 | 0.00 | 18 | 1008.0 |
| 20260508230057 | 22 | 319 | 24.1 | 40.2 | 0.00 | 0.00 | 0.00 | 18 | 1007.8 |
| 20260508224556 | 23 | 331 | 29.0 | 46.7 | 0.00 | 0.00 | 0.00 | 18 | 1008.0 |
| 20260508223055 | 23 | 346 | 32.2 | 46.7 | 0.00 | 0.00 | 0.00 | 19 | 1008.0 |
| 20260508221600 | 22 | 323 | 27.4 | 48.3 | 0.00 | 0.00 | 0.00 | 20 | 1007.9 |
| 20260508220055 | 23 | 326 | 25.7 | 41.8 | 0.00 | 0.00 | 0.00 | 19 | 1007.9 |
| 20260508214549 | 23 | 315 | 25.7 | 43.5 | 0.00 | 0.00 | 0.00 | 18 | 1008.1 |
| 20260508213054 | 23 | 292 | 20.9 | 48.3 | 0.00 | 0.00 | 0.00 | 18 | 1008.1 |
| 20260508211550 | 23 | 344 | 17.7 | 46.7 | 0.00 | 0.00 | 0.00 | 20 | 1008.1 |
| 20260508210056 | 23 | 292 | 32.2 | 48.3 | 0.00 | 0.00 | 0.00 | 19 | 1008.1 |
| 20260508204554 | 23 | 302 | 22.5 | 48.3 | 0.00 | 0.00 | 0.00 | 18 | 1008.1 |
| 20260508203052 | 23 | 304 | 22.5 | 43.5 | 0.00 | 0.00 | 0.00 | 18 | 1008.4 |
| 20260508201554 | 23 | 296 | 22.5 | 48.3 | 0.00 | 0.00 | 0.00 | 20 | 1008.2 |
| 20260508200053 | 22 | 248 | 22.5 | 43.5 | 0.00 | 0.00 | 0.00 | 21 | 1008.3 |
| 20260508194605 | 23 | 298 | 24.1 | 38.6 | 0.00 | 0.00 | 0.00 | 22 | 1008.5 |
| 20260508193108 | 22 | 331 | 22.5 | 38.6 | 0.00 | 0.00 | 0.00 | 21 | 1008.7 |
| 20260508191601 | 22 | 288 | 16.1 | 33.8 | 0.00 | 0.00 | 0.00 | 22 | 1008.7 |
| 20260508190108 | 22 | 284 | 22.5 | 33.8 | 0.00 | 0.00 | 0.00 | 23 | 1009.1 |
| 20260508184552 | 22 | 282 | 20.9 | 41.8 | 0.00 | 0.00 | 0.00 | 23 | 1009.3 |
| 20260508183057 | 21 | 246 | 14.5 | 27.4 | 0.00 | 0.00 | 0.00 | 24 | 1009.7 |
| 20260508181602 | 21 | 259 | 14.5 | 25.7 | 0.00 | 0.00 | 0.00 | 27 | 1010.0 |
| 20260508180057 | 20 | 244 | 11.3 | 24.1 | 0.00 | 0.00 | 0.00 | 32 | 1010.0 |
| 20260508174555 | 20 | 262 | 11.3 | 22.5 | 0.00 | 0.00 | 0.00 | 34 | 1010.3 |
| 20260508173055 | 20 | 264 | 14.5 | 22.5 | 0.00 | 0.00 | 0.00 | 35 | 1010.3 |
| 20260508171556 | 19 | 282 | 14.5 | 20.9 | 0.00 | 0.00 | 0.00 | 36 | 1010.5 |
| 20260508170059 | 18 | 287 | 6.4 | 20.9 | 0.00 | 0.00 | 0.00 | 41 | 1010.7 |
| 20260508164604 | 17 | 241 | 11.3 | 22.5 | 0.00 | 0.00 | 0.00 | 47 | 1010.8 |
| 20260508163109 | 17 | 270 | 9.7 | 19.3 | 0.00 | 0.00 | 0.00 | 49 | 1011.0 |
| 20260508161558 | 16 | 250 | 11.3 | 20.9 | 0.00 | 0.00 | 0.00 | 50 | 1011.2 |
| 20260508160055 | 16 | 259 | 11.3 | 17.7 | 0.00 | 0.00 | 0.00 | 52 | 1011.4 |